createdAt,value
2024-02-26T00:01:14.888Z,59.20
2024-02-26T00:03:43.554Z,59.36
2024-02-26T00:06:10.942Z,59.41
2024-02-26T00:08:38.252Z,58.99
2024-02-26T00:11:05.459Z,58.92
2024-02-26T00:13:32.665Z,58.80
2024-02-26T00:15:59.802Z,58.89
2024-02-26T00:18:27.297Z,58.84
2024-02-26T00:20:54.924Z,59.17
2024-02-26T00:23:22.152Z,59.22
2024-02-26T00:25:49.205Z,59.49
2024-02-26T00:28:16.276Z,59.64
2024-02-26T00:30:43.357Z,60.18
2024-02-26T00:33:11.269Z,60.26
2024-02-26T00:35:38.573Z,60.25
2024-02-26T00:38:05.704Z,60.21
2024-02-26T00:40:32.802Z,60.03
2024-02-26T00:42:59.914Z,59.94
2024-02-26T00:45:27.095Z,59.59
2024-02-26T00:47:54.161Z,59.38
2024-02-26T00:50:21.230Z,59.20
2024-02-26T00:52:48.369Z,59.60
2024-02-26T00:55:15.549Z,59.60
2024-02-26T00:57:43.233Z,59.67
2024-02-26T01:00:11.056Z,59.86
2024-02-26T01:02:39.657Z,59.72
2024-02-26T01:05:07.910Z,59.78
2024-02-26T01:07:37.066Z,59.70
2024-02-26T01:10:06.822Z,59.96
2024-02-26T01:12:35.600Z,60.12
2024-02-26T01:15:06.418Z,59.96
2024-02-26T01:17:34.033Z,60.35
2024-02-26T01:20:01.226Z,60.56
2024-02-26T01:22:28.392Z,60.32
2024-02-26T01:24:55.396Z,60.59
2024-02-26T01:27:22.591Z,60.58
2024-02-26T01:29:49.706Z,60.62
2024-02-26T01:32:16.942Z,60.64
2024-02-26T01:34:44.015Z,60.72
2024-02-26T01:37:11.171Z,60.63
2024-02-26T01:39:38.252Z,60.65
2024-02-26T01:42:05.383Z,60.14
2024-02-26T01:44:32.462Z,60.17
2024-02-26T01:46:59.650Z,60.44
2024-02-26T01:49:26.852Z,60.50
2024-02-26T01:51:54.098Z,60.17
2024-02-26T01:54:21.951Z,60.48
2024-02-26T01:56:50.121Z,60.34
2024-02-26T01:59:17.623Z,60.37
2024-02-26T02:01:54.607Z,60.36
2024-02-26T02:04:24.518Z,60.05
2024-02-26T02:06:53.656Z,60.12
2024-02-26T02:09:21.020Z,60.25
2024-02-26T02:11:49.878Z,60.60
2024-02-26T02:14:16.967Z,60.42
2024-02-26T02:16:44.252Z,60.25
2024-02-26T02:19:11.417Z,60.82
2024-02-26T02:21:38.490Z,60.45
2024-02-26T02:24:06.054Z,60.92
2024-02-26T02:26:33.312Z,61.14
2024-02-26T02:29:01.529Z,61.10
2024-02-26T02:31:28.698Z,61.05
2024-02-26T02:33:55.859Z,60.61
2024-02-26T02:36:23.133Z,59.94
2024-02-26T02:38:52.366Z,60.09
2024-02-26T02:41:19.801Z,60.64
2024-02-26T02:43:47.304Z,60.62
2024-02-26T02:46:14.465Z,60.45
2024-02-26T02:48:44.241Z,60.47
2024-02-26T02:51:11.924Z,60.91
2024-02-26T02:53:39.016Z,60.70
2024-02-26T02:56:06.510Z,60.65
2024-02-26T02:58:33.653Z,60.97
2024-02-26T03:01:02.082Z,60.78
2024-02-26T03:03:29.993Z,61.01
2024-02-26T03:05:57.602Z,60.90
2024-02-26T03:08:26.893Z,60.96
2024-02-26T03:10:54.356Z,60.77
2024-02-26T03:13:21.605Z,60.99
2024-02-26T03:15:48.800Z,60.91
2024-02-26T03:18:15.987Z,61.08
2024-02-26T03:20:43.333Z,60.99
2024-02-26T03:23:13.665Z,61.19
2024-02-26T03:25:41.066Z,60.94
2024-02-26T03:28:08.410Z,60.66
2024-02-26T03:30:35.947Z,60.76
2024-02-26T03:33:03.882Z,60.36
2024-02-26T03:35:31.296Z,60.43
2024-02-26T03:37:58.465Z,60.61
2024-02-26T03:40:25.613Z,60.93
2024-02-26T03:42:55.120Z,61.19
2024-02-26T03:45:22.464Z,60.94
2024-02-26T03:47:49.868Z,61.13
2024-02-26T03:50:17.572Z,61.30
2024-02-26T03:52:44.725Z,61.49
2024-02-26T03:55:11.742Z,61.46
2024-02-26T03:57:38.799Z,61.18
2024-02-26T04:00:07.585Z,61.12
2024-02-26T04:02:37.984Z,61.16
2024-02-26T04:05:05.816Z,61.02
2024-02-26T04:07:32.972Z,60.69
2024-02-26T04:10:02.003Z,60.93
2024-02-26T04:12:30.606Z,61.03
2024-02-26T04:14:57.887Z,61.08
2024-02-26T04:17:25.649Z,61.05
2024-02-26T04:19:52.743Z,61.15
2024-02-26T04:22:19.977Z,61.12
2024-02-26T04:24:47.152Z,61.03
2024-02-26T04:27:14.302Z,61.19
2024-02-26T04:29:41.427Z,61.29
2024-02-26T04:32:08.586Z,61.57
2024-02-26T04:34:36.333Z,61.35
2024-02-26T04:37:03.664Z,61.56
2024-02-26T04:39:30.801Z,61.57
2024-02-26T04:41:58.016Z,61.28
2024-02-26T04:44:25.252Z,61.33
2024-02-26T04:46:52.383Z,61.07
2024-02-26T04:49:19.500Z,61.14
2024-02-26T04:51:46.602Z,61.35
2024-02-26T04:54:13.680Z,61.43
2024-02-26T04:56:40.926Z,61.55
2024-02-26T04:59:08.030Z,61.59
2024-02-26T05:01:35.104Z,61.54
2024-02-26T05:04:02.364Z,61.30
2024-02-26T05:06:29.629Z,61.03
2024-02-26T05:08:56.962Z,60.94
2024-02-26T05:11:24.082Z,61.06
2024-02-26T05:13:51.062Z,61.17
2024-02-26T05:16:18.110Z,61.07
2024-02-26T05:18:45.266Z,61.15
2024-02-26T05:21:12.361Z,61.21
2024-02-26T05:23:39.402Z,60.79
2024-02-26T05:26:06.388Z,61.05
2024-02-26T05:28:33.621Z,60.99
2024-02-26T05:31:00.724Z,61.19
2024-02-26T05:33:27.838Z,61.80
2024-02-26T05:35:54.916Z,61.02
2024-02-26T05:38:25.054Z,60.83
2024-02-26T05:40:53.623Z,60.91
2024-02-26T05:43:20.665Z,60.70
2024-02-26T05:45:52.619Z,60.74
2024-02-26T05:48:26.997Z,60.48
2024-02-26T05:50:55.419Z,60.52
2024-02-26T05:53:22.475Z,60.67
2024-02-26T05:55:49.492Z,61.16
2024-02-26T05:58:16.483Z,61.50
2024-02-26T06:00:43.763Z,61.70
2024-02-26T06:03:10.947Z,61.59
2024-02-26T06:05:38.102Z,61.62
2024-02-26T06:08:06.240Z,61.87
2024-02-26T06:10:33.982Z,61.54
2024-02-26T06:13:00.979Z,61.35
2024-02-26T06:15:28.009Z,61.32
2024-02-26T06:17:55.255Z,61.20
2024-02-26T06:20:22.300Z,61.10
2024-02-26T06:22:49.313Z,60.94
2024-02-26T06:25:16.381Z,60.68
2024-02-26T06:27:43.434Z,60.71
2024-02-26T06:30:12.402Z,60.47
2024-02-26T06:32:39.896Z,60.20
2024-02-26T06:35:12.547Z,60.00
2024-02-26T06:37:39.708Z,59.47
2024-02-26T06:40:07.842Z,59.76
2024-02-26T06:42:34.979Z,59.04
2024-02-26T06:45:02.654Z,58.91
2024-02-26T06:47:29.763Z,58.66
2024-02-26T06:49:59.374Z,58.37
2024-02-26T06:52:26.859Z,58.29
2024-02-26T06:54:54.254Z,58.06
2024-02-26T06:57:21.941Z,57.94
2024-02-26T06:59:49.182Z,57.63
2024-02-26T07:02:17.695Z,57.10
2024-02-26T07:04:44.942Z,57.52
2024-02-26T07:07:12.148Z,57.34
2024-02-26T07:09:39.341Z,57.17
2024-02-26T07:12:06.786Z,56.83
2024-02-26T07:14:34.009Z,56.38
2024-02-26T07:17:01.264Z,55.68
2024-02-26T07:19:28.557Z,55.51
2024-02-26T07:21:56.702Z,55.37
2024-02-26T07:24:24.329Z,55.25
2024-02-26T07:26:51.474Z,55.02
2024-02-26T07:29:18.620Z,54.64
2024-02-26T07:31:45.970Z,54.49
2024-02-26T07:34:13.101Z,54.33
2024-02-26T07:36:41.098Z,54.12
2024-02-26T07:39:08.172Z,53.41
2024-02-26T07:41:35.309Z,52.87
2024-02-26T07:44:02.453Z,52.89
2024-02-26T07:46:29.547Z,52.79
2024-02-26T07:48:56.758Z,52.46
2024-02-26T07:51:23.978Z,52.22
2024-02-26T07:53:51.135Z,52.30
2024-02-26T07:56:19.570Z,52.12
2024-02-26T07:58:46.585Z,52.00
2024-02-26T08:01:16.742Z,51.40
2024-02-26T08:03:44.283Z,51.08
2024-02-26T08:06:11.489Z,51.02
2024-02-26T08:08:38.532Z,50.96
2024-02-26T08:11:05.726Z,50.56
2024-02-26T08:13:32.840Z,50.54
2024-02-26T08:16:00.287Z,50.33
2024-02-26T08:18:27.533Z,50.18
2024-02-26T08:20:54.680Z,50.06
2024-02-26T08:23:21.843Z,50.10
2024-02-26T08:25:48.983Z,49.96
2024-02-26T08:28:18.918Z,49.47
2024-02-26T08:30:46.178Z,49.40
2024-02-26T08:33:14.682Z,49.39
2024-02-26T08:35:42.040Z,49.08
2024-02-26T08:38:09.085Z,49.02
2024-02-26T08:40:36.090Z,48.73
2024-02-26T08:43:03.135Z,49.14
2024-02-26T08:45:30.882Z,48.99
2024-02-26T08:47:59.735Z,48.89
2024-02-26T08:50:27.865Z,48.91
2024-02-26T08:52:55.228Z,48.56
2024-02-26T08:55:22.349Z,48.39
2024-02-26T08:57:49.702Z,48.23
2024-02-26T09:00:18.901Z,48.26
2024-02-26T09:02:46.222Z,48.36
2024-02-26T09:05:13.304Z,49.29
2024-02-26T09:07:40.418Z,49.28
2024-02-26T09:10:11.446Z,49.14
2024-02-26T09:12:40.905Z,48.80
2024-02-26T09:15:09.302Z,48.40
2024-02-26T09:17:36.405Z,48.05
2024-02-26T09:20:05.046Z,48.10
2024-02-26T09:22:32.083Z,48.20
2024-02-26T09:24:59.080Z,47.98
2024-02-26T09:27:26.254Z,47.71
2024-02-26T09:29:53.323Z,47.44
2024-02-26T09:32:20.483Z,47.43
2024-02-26T09:34:47.653Z,48.00
2024-02-26T09:37:21.263Z,47.51
2024-02-26T09:39:49.680Z,47.01
2024-02-26T09:42:20.647Z,47.40
2024-02-26T09:44:53.538Z,46.84
2024-02-26T09:47:21.656Z,46.32
2024-02-26T09:49:53.356Z,45.97
2024-02-26T09:52:21.567Z,45.67
2024-02-26T09:54:49.164Z,46.14
2024-02-26T09:57:18.491Z,45.72
2024-02-26T09:59:47.581Z,44.98
2024-02-26T10:02:16.476Z,44.75
2024-02-26T10:04:48.137Z,44.45
2024-02-26T10:07:18.698Z,44.44
2024-02-26T10:09:46.248Z,44.08
2024-02-26T10:12:14.253Z,44.08
2024-02-26T10:14:41.319Z,43.71
2024-02-26T10:17:12.547Z,42.98
2024-02-26T10:19:40.080Z,43.71
2024-02-26T10:22:07.497Z,43.99
2024-02-26T10:24:36.031Z,43.84
2024-02-26T10:27:04.049Z,44.01
2024-02-26T10:29:31.256Z,44.38
2024-02-26T10:31:58.367Z,43.97
2024-02-26T10:34:25.944Z,44.01
2024-02-26T10:36:54.590Z,43.52
2024-02-26T10:39:22.990Z,43.46
2024-02-26T10:41:51.144Z,43.53
2024-02-26T10:44:19.630Z,43.54
2024-02-26T10:46:51.191Z,43.32
2024-02-26T10:49:21.271Z,42.63
2024-02-26T10:51:58.079Z,41.92
2024-02-26T10:54:31.522Z,41.97
2024-02-26T10:57:00.981Z,42.16
2024-02-26T10:59:28.423Z,42.17
2024-02-26T11:01:56.768Z,41.66
2024-02-26T11:04:26.368Z,41.99
2024-02-26T11:06:56.958Z,42.31
2024-02-26T11:09:24.775Z,42.18
2024-02-26T11:11:55.997Z,41.42
2024-02-26T11:14:26.880Z,40.90
2024-02-26T11:16:57.095Z,40.38
2024-02-26T11:19:27.677Z,40.59
2024-02-26T11:21:54.844Z,39.30
2024-02-26T11:24:22.320Z,39.83
2024-02-26T11:27:00.404Z,40.00
2024-02-26T11:29:39.978Z,39.59
2024-02-26T11:32:07.725Z,39.24
2024-02-26T11:34:35.490Z,38.75
2024-02-26T11:37:17.504Z,37.38
2024-02-26T11:39:46.701Z,36.80
2024-02-26T11:42:17.870Z,35.65
2024-02-26T11:44:45.091Z,34.52
2024-02-26T11:47:23.847Z,33.54
2024-02-26T11:49:51.259Z,32.43
2024-02-26T11:52:18.634Z,32.53
2024-02-26T11:54:54.364Z,32.67
2024-02-26T11:57:41.301Z,32.24
2024-02-26T12:00:08.514Z,31.19
2024-02-26T12:02:47.125Z,30.49
2024-02-26T12:05:20.693Z,31.14
2024-02-26T12:07:50.120Z,31.44
2024-02-26T12:10:30.111Z,32.45
2024-02-26T12:13:09.379Z,33.28
2024-02-26T12:15:42.887Z,34.15
2024-02-26T12:18:14.121Z,35.23
2024-02-26T12:20:41.372Z,35.81
2024-02-26T12:23:08.542Z,35.65
2024-02-26T12:25:35.562Z,36.10
2024-02-26T12:28:02.681Z,36.66
2024-02-26T12:30:32.851Z,36.38
2024-02-26T12:33:02.381Z,36.64
2024-02-26T12:35:32.942Z,36.58
2024-02-26T12:38:01.921Z,36.57
2024-02-26T12:40:29.561Z,36.19
2024-02-26T12:42:56.782Z,36.93
2024-02-26T12:45:23.903Z,36.66
2024-02-26T12:47:51.485Z,36.64
2024-02-26T12:50:19.076Z,36.72
2024-02-26T12:52:48.718Z,37.18
2024-02-26T12:55:27.068Z,37.39
2024-02-26T12:57:55.318Z,37.44
2024-02-26T13:00:27.758Z,37.98
2024-02-26T13:02:56.804Z,38.19
2024-02-26T13:05:24.935Z,38.34
2024-02-26T13:07:54.103Z,37.78
2024-02-26T13:10:22.210Z,37.75
2024-02-26T13:12:54.397Z,37.81
2024-02-26T13:15:23.485Z,37.82
2024-02-26T13:17:51.639Z,37.61
2024-02-26T13:20:32.510Z,37.69
2024-02-26T13:23:12.907Z,38.37
2024-02-26T13:25:44.088Z,38.23
2024-02-26T13:28:18.711Z,38.13
2024-02-26T13:31:01.655Z,37.75
2024-02-26T13:33:31.121Z,38.08
2024-02-26T13:35:59.995Z,37.96
2024-02-26T13:38:29.549Z,38.31
2024-02-26T13:40:57.221Z,38.31
2024-02-26T13:43:24.748Z,38.04
2024-02-26T13:45:52.335Z,37.89
2024-02-26T13:48:19.853Z,38.04
2024-02-26T13:50:47.703Z,38.27
2024-02-26T13:53:15.861Z,38.13
2024-02-26T13:55:46.232Z,38.07
2024-02-26T13:58:15.608Z,38.38
2024-02-26T14:00:43.800Z,38.96
2024-02-26T14:03:11.608Z,38.92
2024-02-26T14:05:38.842Z,39.41
2024-02-26T14:08:06.911Z,38.97
2024-02-26T14:10:34.486Z,38.51
2024-02-26T14:13:02.059Z,38.48
2024-02-26T14:15:30.719Z,38.41
2024-02-26T14:17:58.420Z,38.35
2024-02-26T14:20:26.796Z,38.69
2024-02-26T14:22:54.860Z,38.20
2024-02-26T14:25:23.224Z,38.25
2024-02-26T14:27:50.732Z,38.25
2024-02-26T14:30:20.818Z,38.44
2024-02-26T14:32:48.033Z,38.96
2024-02-26T14:35:17.482Z,39.10
2024-02-26T14:37:48.370Z,39.17
2024-02-26T14:40:17.046Z,38.94
2024-02-26T14:42:44.495Z,39.14
2024-02-26T14:45:12.632Z,39.18
2024-02-26T14:47:41.597Z,39.21
2024-02-26T14:50:09.442Z,39.63
2024-02-26T14:52:36.667Z,39.95
2024-02-26T14:55:04.065Z,40.06
2024-02-26T14:57:31.141Z,40.08
2024-02-26T14:59:58.371Z,40.16
2024-02-26T15:02:25.618Z,40.52
2024-02-26T15:04:52.630Z,40.55
2024-02-26T15:07:21.296Z,40.22
2024-02-26T15:09:48.617Z,40.20
2024-02-26T15:12:16.436Z,39.95
2024-02-26T15:14:43.754Z,40.03
2024-02-26T15:17:14.236Z,40.31
2024-02-26T15:19:41.461Z,40.56
2024-02-26T15:22:08.555Z,40.27
2024-02-26T15:24:35.766Z,40.22
2024-02-26T15:27:03.419Z,40.39
2024-02-26T15:29:30.492Z,40.54
2024-02-26T15:31:57.634Z,40.77
2024-02-26T15:34:24.783Z,40.87
2024-02-26T15:36:51.883Z,41.31
2024-02-26T15:39:19.035Z,41.33
2024-02-26T15:41:46.212Z,41.63
2024-02-26T15:44:13.276Z,41.53
2024-02-26T15:46:43.703Z,41.71
2024-02-26T15:49:14.180Z,41.76
2024-02-26T15:51:43.777Z,42.07
2024-02-26T15:54:10.954Z,42.07
2024-02-26T15:56:39.471Z,42.14
2024-02-26T15:59:06.616Z,42.18
2024-02-26T16:01:33.768Z,42.07
2024-02-26T16:04:01.120Z,42.40
2024-02-26T16:06:41.030Z,42.87
2024-02-26T16:09:11.227Z,43.12
2024-02-26T16:11:38.565Z,42.99
2024-02-26T16:14:12.983Z,42.73
2024-02-26T16:16:51.684Z,42.87
2024-02-26T16:19:20.912Z,42.83
2024-02-26T16:21:48.156Z,43.01
2024-02-26T16:24:15.483Z,43.17
2024-02-26T16:26:42.960Z,43.55
2024-02-26T16:29:17.383Z,43.90
2024-02-26T16:31:44.737Z,43.95
2024-02-26T16:34:12.106Z,43.84
2024-02-26T16:36:39.418Z,44.13
2024-02-26T16:39:06.599Z,44.44
2024-02-26T16:41:35.326Z,44.69
2024-02-26T16:44:02.588Z,44.69
2024-02-26T16:46:29.779Z,44.76
2024-02-26T16:48:58.925Z,44.90
2024-02-26T16:51:26.190Z,44.91
2024-02-26T16:53:53.603Z,45.26
2024-02-26T16:56:20.738Z,45.45
2024-02-26T16:58:47.823Z,45.53
2024-02-26T17:01:15.195Z,45.54
2024-02-26T17:03:42.379Z,45.48
2024-02-26T17:06:10.468Z,45.59
2024-02-26T17:08:40.300Z,45.41
2024-02-26T17:11:07.462Z,45.46
2024-02-26T17:13:35.084Z,45.22
2024-02-26T17:16:02.335Z,45.27
2024-02-26T17:18:29.492Z,45.01
2024-02-26T17:20:58.773Z,44.75
2024-02-26T17:23:28.111Z,45.15
2024-02-26T17:25:55.143Z,45.30
2024-02-26T17:28:22.238Z,45.65
2024-02-26T17:30:49.529Z,44.90
2024-02-26T17:33:16.955Z,44.53
2024-02-26T17:35:44.592Z,44.50
2024-02-26T17:38:11.838Z,44.84
2024-02-26T17:40:39.245Z,45.24
2024-02-26T17:43:06.303Z,45.18
2024-02-26T17:45:33.589Z,44.88
2024-02-26T17:48:01.049Z,45.33
2024-02-26T17:50:28.317Z,45.38
2024-02-26T17:52:58.179Z,45.25
2024-02-26T17:55:25.317Z,45.83
2024-02-26T17:57:52.419Z,45.65
2024-02-26T18:00:19.912Z,45.93
2024-02-26T18:02:47.049Z,46.13
2024-02-26T18:05:14.336Z,46.22
2024-02-26T18:07:41.569Z,45.68
2024-02-26T18:10:10.264Z,45.92
2024-02-26T18:12:37.943Z,45.89
2024-02-26T18:15:06.234Z,46.56
2024-02-26T18:17:34.004Z,46.68
2024-02-26T18:20:03.506Z,46.79
2024-02-26T18:22:30.617Z,46.95
2024-02-26T18:24:58.239Z,46.89
2024-02-26T18:27:25.361Z,47.10
2024-02-26T18:29:52.504Z,47.68
2024-02-26T18:32:20.825Z,47.92
2024-02-26T18:34:48.040Z,48.28
2024-02-26T18:37:15.703Z,48.20
2024-02-26T18:39:42.945Z,48.24
2024-02-26T18:42:12.226Z,48.39
2024-02-26T18:44:41.727Z,48.77
2024-02-26T18:47:09.031Z,48.67
2024-02-26T18:49:38.576Z,48.92
2024-02-26T18:52:06.354Z,48.96
2024-02-26T18:54:37.135Z,49.14
2024-02-26T18:57:09.066Z,49.41
2024-02-26T18:59:36.923Z,49.60
2024-02-26T19:02:05.406Z,49.77
2024-02-26T19:04:32.769Z,49.86
2024-02-26T19:07:00.294Z,50.15
2024-02-26T19:09:27.790Z,50.48
2024-02-26T19:11:56.529Z,50.57
2024-02-26T19:14:24.546Z,51.01
2024-02-26T19:16:51.808Z,51.22
2024-02-26T19:19:19.905Z,51.72
2024-02-26T19:21:47.108Z,51.86
2024-02-26T19:24:16.794Z,52.27
2024-02-26T19:26:44.063Z,52.42
2024-02-26T19:29:11.273Z,53.00
2024-02-26T19:31:38.916Z,52.95
2024-02-26T19:34:06.215Z,53.21
2024-02-26T19:36:33.635Z,52.92
2024-02-26T19:39:01.005Z,52.80
2024-02-26T19:41:28.148Z,53.13
2024-02-26T19:43:55.200Z,53.21
2024-02-26T19:46:22.361Z,53.47
2024-02-26T19:48:49.522Z,53.18
2024-02-26T19:51:20.511Z,53.10
2024-02-26T19:53:47.971Z,53.35
2024-02-26T19:56:17.276Z,53.54
2024-02-26T19:58:44.586Z,53.56
2024-02-26T20:01:12.149Z,53.73
2024-02-26T20:03:41.446Z,53.76
2024-02-26T20:06:08.986Z,53.74
2024-02-26T20:08:36.167Z,53.50
2024-02-26T20:11:03.885Z,53.65
2024-02-26T20:13:32.233Z,53.74
2024-02-26T20:15:59.739Z,54.02
2024-02-26T20:18:29.665Z,53.87
2024-02-26T20:20:56.931Z,54.03
2024-02-26T20:23:24.296Z,54.09
2024-02-26T20:25:51.904Z,54.19
2024-02-26T20:28:19.185Z,53.92
2024-02-26T20:30:46.405Z,53.70
2024-02-26T20:33:13.834Z,53.69
2024-02-26T20:35:41.221Z,53.46
2024-02-26T20:38:10.002Z,53.26
2024-02-26T20:40:37.974Z,53.39
2024-02-26T20:43:05.255Z,53.52
2024-02-26T20:45:32.508Z,53.82
2024-02-26T20:48:00.360Z,53.95
2024-02-26T20:50:27.735Z,53.98
2024-02-26T20:52:54.808Z,54.39
2024-02-26T20:55:22.003Z,54.54
2024-02-26T20:57:49.130Z,54.63
2024-02-26T21:00:16.805Z,54.66
2024-02-26T21:02:44.718Z,54.70
2024-02-26T21:05:12.057Z,54.03
2024-02-26T21:07:40.392Z,54.50
2024-02-26T21:10:08.978Z,54.70
2024-02-26T21:12:36.317Z,55.03
2024-02-26T21:15:06.519Z,54.85
2024-02-26T21:17:33.732Z,54.86
2024-02-26T21:20:00.761Z,54.74
2024-02-26T21:22:27.886Z,54.88
2024-02-26T21:24:55.043Z,54.81
2024-02-26T21:27:23.818Z,55.24
2024-02-26T21:29:50.934Z,55.18
2024-02-26T21:32:18.002Z,54.97
2024-02-26T21:34:45.455Z,54.72
2024-02-26T21:37:12.606Z,55.11
2024-02-26T21:39:39.873Z,55.29
2024-02-26T21:42:07.240Z,55.39
2024-02-26T21:44:34.427Z,54.84
2024-02-26T21:47:03.705Z,55.10
2024-02-26T21:49:31.111Z,55.39
2024-02-26T21:51:58.515Z,55.27
2024-02-26T21:57:45.044Z,55.24
2024-02-26T22:00:13.179Z,55.89
2024-02-26T22:02:41.067Z,56.02
2024-02-26T22:05:09.601Z,56.13
2024-02-26T22:07:37.024Z,55.96
2024-02-26T22:10:05.381Z,56.14
2024-02-26T22:12:32.779Z,56.00
2024-02-26T22:14:59.896Z,55.76
2024-02-26T22:17:27.527Z,55.36
2024-02-26T22:19:54.784Z,54.95
2024-02-26T22:22:22.025Z,54.84
2024-02-26T22:24:49.078Z,54.66
2024-02-26T22:27:16.381Z,55.13
2024-02-26T22:29:43.635Z,55.51
2024-02-26T22:32:10.739Z,55.28
2024-02-26T22:34:37.927Z,55.55
2024-02-26T22:37:05.162Z,55.40
2024-02-26T22:39:32.296Z,54.95
2024-02-26T22:42:01.385Z,54.30
2024-02-26T22:44:28.653Z,54.35
2024-02-26T22:46:55.705Z,54.00
2024-02-26T22:49:22.946Z,54.04
2024-02-26T22:51:51.252Z,54.48
2024-02-26T22:54:18.560Z,54.72
2024-02-26T22:56:45.709Z,54.72
2024-02-26T22:59:12.876Z,55.25
2024-02-26T23:01:40.041Z,55.32
2024-02-26T23:04:07.228Z,54.95
2024-02-26T23:06:34.579Z,54.70
2024-02-26T23:09:01.791Z,55.14
2024-02-26T23:11:29.307Z,55.78
2024-02-26T23:13:56.294Z,55.98
2024-02-26T23:16:24.670Z,55.89
2024-02-26T23:18:51.867Z,55.88
2024-02-26T23:21:19.550Z,56.17
2024-02-26T23:23:46.904Z,56.34
2024-02-26T23:26:13.915Z,56.46
2024-02-26T23:28:41.163Z,56.25
2024-02-26T23:31:08.542Z,55.38
2024-02-26T23:33:35.666Z,55.40
2024-02-26T23:36:03.049Z,56.31
2024-02-26T23:38:30.098Z,56.38
2024-02-26T23:40:58.067Z,56.62
2024-02-26T23:43:25.207Z,56.04
2024-02-26T23:45:52.465Z,56.08
2024-02-26T23:48:19.859Z,55.85
2024-02-26T23:50:47.057Z,56.07
2024-02-26T23:53:14.136Z,55.84
2024-02-26T23:55:41.216Z,55.78
2024-02-26T23:58:08.213Z,55.61
